createdAt,value
2023-03-17T00:00:58.630Z,17.10
2023-03-17T00:03:29.539Z,15.50
2023-03-17T00:05:58.719Z,15.60
2023-03-17T00:08:30.016Z,14.40
2023-03-17T00:10:58.595Z,13.10
2023-03-17T00:13:27.101Z,14.10
2023-03-17T00:16:01.206Z,12.30
2023-03-17T00:18:31.820Z,15.70
2023-03-17T00:21:05.896Z,15.40
2023-03-17T00:23:35.489Z,15.10
2023-03-17T00:26:04.207Z,13.70
2023-03-17T00:28:35.329Z,22.20
2023-03-17T00:31:11.598Z,15.80
2023-03-17T00:33:40.723Z,15.60
2023-03-17T00:36:13.708Z,15.10
2023-03-17T00:38:42.199Z,16.00
2023-03-17T00:41:14.007Z,15.10
2023-03-17T00:43:46.236Z,11.00
2023-03-17T00:46:29.362Z,14.40
2023-03-17T00:48:59.827Z,16.30
2023-03-17T00:51:29.408Z,17.10
2023-03-17T00:53:58.117Z,15.90
2023-03-17T00:56:29.906Z,15.50
2023-03-17T00:58:58.964Z,18.00
2023-03-17T01:01:27.965Z,16.90
2023-03-17T01:03:57.589Z,17.50
2023-03-17T01:06:26.179Z,13.90
2023-03-17T01:08:55.373Z,14.90
2023-03-17T01:11:24.130Z,19.60
2023-03-17T01:13:54.585Z,16.70
2023-03-17T01:16:23.668Z,17.70
2023-03-17T01:18:52.460Z,17.10
2023-03-17T01:21:21.220Z,12.40
2023-03-17T01:23:49.820Z,14.20
2023-03-17T01:26:19.274Z,16.90
2023-03-17T01:28:48.087Z,16.90
2023-03-17T01:31:17.581Z,16.00
2023-03-17T01:33:47.694Z,16.40
2023-03-17T01:36:16.480Z,15.50
2023-03-17T01:38:48.276Z,17.80
2023-03-17T01:41:18.738Z,17.60
2023-03-17T01:43:50.134Z,19.50
2023-03-17T01:46:26.012Z,16.40
2023-03-17T01:49:06.929Z,18.20
2023-03-17T01:51:57.794Z,17.80
2023-03-17T01:54:35.014Z,16.20
2023-03-17T01:57:09.490Z,14.10
2023-03-17T01:59:42.418Z,13.60
2023-03-17T02:02:11.913Z,12.60
2023-03-17T02:04:41.116Z,15.60
2023-03-17T02:07:10.359Z,15.10
2023-03-17T02:09:44.846Z,17.20
2023-03-17T02:12:15.500Z,12.00
2023-03-17T02:14:44.546Z,14.40
2023-03-17T02:17:22.407Z,14.50
2023-03-17T02:19:51.940Z,15.70
2023-03-17T02:22:20.771Z,18.10
2023-03-17T02:24:56.051Z,14.60
2023-03-17T02:27:34.987Z,15.90
2023-03-17T02:30:06.904Z,16.00
2023-03-17T02:32:38.364Z,15.60
2023-03-17T02:35:10.518Z,17.10
2023-03-17T02:37:43.852Z,14.20
2023-03-17T02:40:14.430Z,18.20
2023-03-17T02:42:47.144Z,18.60
2023-03-17T02:45:16.150Z,18.30
2023-03-17T02:47:47.263Z,19.00
2023-03-17T02:50:24.128Z,15.90
2023-03-17T02:52:52.705Z,14.70
2023-03-17T02:55:21.495Z,17.70
2023-03-17T02:57:50.352Z,16.60
2023-03-17T03:00:21.717Z,15.40
2023-03-17T03:02:51.478Z,15.70
2023-03-17T03:05:25.057Z,16.30
2023-03-17T03:07:54.278Z,12.40
2023-03-17T03:10:23.288Z,13.30
2023-03-17T03:12:53.610Z,14.80
2023-03-17T03:15:23.487Z,16.10
2023-03-17T03:17:52.293Z,12.50
2023-03-17T03:20:22.303Z,13.80
2023-03-17T03:22:51.587Z,11.10
2023-03-17T03:25:22.318Z,11.20
2023-03-17T03:27:51.131Z,12.50
2023-03-17T03:30:19.745Z,10.10
2023-03-17T03:32:52.732Z,11.70
2023-03-17T03:35:22.099Z,10.80
2023-03-17T03:37:51.082Z,8.30
2023-03-17T03:40:20.217Z,8.40
2023-03-17T03:42:48.997Z,7.30
2023-03-17T03:45:18.145Z,7.40
2023-03-17T03:47:46.932Z,8.10
2023-03-17T03:50:16.410Z,8.20
2023-03-17T03:52:45.977Z,7.80
2023-03-17T03:55:14.426Z,11.70
2023-03-17T03:57:44.269Z,8.90
2023-03-17T04:00:14.304Z,9.10
2023-03-17T04:02:45.208Z,9.20
2023-03-17T04:05:15.608Z,10.10
2023-03-17T04:07:47.988Z,11.20
2023-03-17T04:10:16.684Z,10.00
2023-03-17T04:12:46.114Z,11.10
2023-03-17T04:15:18.694Z,10.50
2023-03-17T04:17:48.796Z,11.90
2023-03-17T04:20:17.941Z,12.10
2023-03-17T04:22:49.566Z,11.20
2023-03-17T04:25:18.364Z,12.60
2023-03-17T04:27:47.411Z,11.40
2023-03-17T04:30:17.188Z,11.90
2023-03-17T04:32:46.716Z,10.40
2023-03-17T04:35:19.015Z,11.10
2023-03-17T04:37:49.615Z,10.90
2023-03-17T04:40:24.291Z,10.80
2023-03-17T04:42:53.456Z,10.70
2023-03-17T04:45:22.256Z,16.20
2023-03-17T04:47:51.286Z,12.80
2023-03-17T04:50:20.114Z,12.70
2023-03-17T04:52:52.860Z,17.90
2023-03-17T04:55:21.551Z,17.90
2023-03-17T04:57:50.212Z,15.60
2023-03-17T05:00:19.860Z,13.80
2023-03-17T05:02:48.601Z,14.40
2023-03-17T05:05:19.310Z,14.90
2023-03-17T05:07:47.986Z,13.40
2023-03-17T05:10:16.785Z,15.20
2023-03-17T05:12:46.042Z,23.20
2023-03-17T05:15:15.685Z,22.60
2023-03-17T05:17:44.425Z,20.30
2023-03-17T05:20:13.379Z,14.60
2023-03-17T05:22:42.497Z,12.70
2023-03-17T05:25:17.079Z,13.00
2023-03-17T05:27:46.677Z,12.60
2023-03-17T05:30:16.030Z,15.40
2023-03-17T05:32:45.702Z,13.10
2023-03-17T05:35:14.688Z,12.50
2023-03-17T05:37:45.329Z,15.60
2023-03-17T05:40:14.941Z,18.10
2023-03-17T05:42:43.538Z,16.40
2023-03-17T05:45:12.687Z,20.30
2023-03-17T05:47:44.805Z,18.60
2023-03-17T05:50:14.256Z,21.50
2023-03-17T05:52:43.562Z,20.30
2023-03-17T05:55:19.005Z,16.10
2023-03-17T05:57:49.834Z,17.00
2023-03-17T06:00:19.157Z,17.80
2023-03-17T06:02:49.102Z,19.90
2023-03-17T06:05:18.155Z,16.70
2023-03-17T06:07:54.951Z,17.70
2023-03-17T06:10:25.718Z,18.70
2023-03-17T06:12:54.366Z,21.50
2023-03-17T06:15:23.088Z,24.90
2023-03-17T06:17:52.018Z,21.30
2023-03-17T06:20:23.855Z,30.50
2023-03-17T06:23:03.906Z,27.90
2023-03-17T06:25:34.855Z,23.30
2023-03-17T06:28:05.815Z,21.60
2023-03-17T06:30:36.762Z,21.30
2023-03-17T06:33:09.556Z,24.70
2023-03-17T06:35:41.314Z,21.90
2023-03-17T06:38:10.101Z,27.30
2023-03-17T06:40:38.794Z,26.00
2023-03-17T06:43:07.803Z,38.20
2023-03-17T06:45:38.321Z,23.90
2023-03-17T06:48:07.227Z,31.10
2023-03-17T06:50:36.065Z,30.00
2023-03-17T06:53:07.398Z,24.50
2023-03-17T06:55:36.217Z,25.40
2023-03-17T06:58:06.911Z,21.10
2023-03-17T07:00:38.690Z,20.80
2023-03-17T07:03:07.418Z,20.20
2023-03-17T07:05:36.075Z,18.70
2023-03-17T07:08:04.689Z,22.30
2023-03-17T07:10:33.515Z,23.30
2023-03-17T07:13:05.319Z,18.60
2023-03-17T07:15:36.108Z,18.40
2023-03-17T07:18:07.177Z,21.30
2023-03-17T07:20:36.714Z,17.90
2023-03-17T07:23:05.613Z,18.60
2023-03-17T07:25:36.992Z,19.70
2023-03-17T07:28:05.831Z,18.60
2023-03-17T07:30:35.829Z,17.70
2023-03-17T07:33:05.079Z,15.70
2023-03-17T07:35:34.880Z,16.40
2023-03-17T07:38:03.926Z,19.20
2023-03-17T07:40:35.260Z,16.50
2023-03-17T07:43:04.801Z,17.40
2023-03-17T07:45:36.252Z,19.30
2023-03-17T07:48:05.391Z,15.00
2023-03-17T07:50:35.114Z,16.10
2023-03-17T07:53:04.180Z,17.60
2023-03-17T07:55:33.212Z,15.00
2023-03-17T07:58:03.087Z,16.90
2023-03-17T08:00:32.282Z,16.00
2023-03-17T08:03:10.441Z,8.40
2023-03-17T08:05:39.918Z,10.80
2023-03-17T08:08:12.909Z,9.50
2023-03-17T08:10:42.726Z,13.90
2023-03-17T08:13:11.288Z,12.70
2023-03-17T08:15:42.581Z,11.70
2023-03-17T08:18:11.384Z,20.00
2023-03-17T08:20:41.066Z,15.70
2023-03-17T08:23:11.599Z,15.10
2023-03-17T08:25:40.889Z,12.50
2023-03-17T08:28:10.517Z,20.00
2023-03-17T08:30:39.931Z,18.20
2023-03-17T08:33:09.629Z,15.50
2023-03-17T08:35:41.903Z,13.90
2023-03-17T08:38:11.443Z,12.70
2023-03-17T08:40:40.150Z,17.30
2023-03-17T08:43:09.573Z,14.10
2023-03-17T08:45:39.312Z,13.70
2023-03-17T08:48:08.682Z,13.00
2023-03-17T08:50:38.068Z,13.70
2023-03-17T08:53:08.904Z,14.90
2023-03-17T08:55:38.137Z,13.90
2023-03-17T08:58:06.671Z,9.70
2023-03-17T09:00:36.259Z,15.40
2023-03-17T09:03:06.003Z,16.10
2023-03-17T09:05:37.590Z,12.30
2023-03-17T09:08:07.840Z,12.60
2023-03-17T09:10:37.256Z,14.80
2023-03-17T09:13:09.224Z,10.80
2023-03-17T09:15:40.760Z,11.80
2023-03-17T09:18:09.557Z,11.00
2023-03-17T09:20:38.144Z,13.20
2023-03-17T09:23:10.963Z,18.60
2023-03-17T09:25:40.045Z,17.50
2023-03-17T09:28:12.202Z,16.40
2023-03-17T09:30:42.991Z,12.60
2023-03-17T09:33:14.734Z,13.30
2023-03-17T09:35:43.586Z,10.30
2023-03-17T09:38:13.117Z,12.20
2023-03-17T09:40:48.255Z,14.40
2023-03-17T09:43:38.988Z,15.30
2023-03-17T09:46:28.303Z,14.70
2023-03-17T09:49:02.275Z,15.80
2023-03-17T09:51:43.736Z,13.50
2023-03-17T09:54:18.698Z,17.10
2023-03-17T09:56:57.906Z,17.30
2023-03-17T09:59:42.186Z,14.80
2023-03-17T10:02:27.978Z,15.30
2023-03-17T10:04:57.628Z,10.50
2023-03-17T10:07:29.869Z,16.70
2023-03-17T10:10:03.645Z,14.90
2023-03-17T10:12:49.920Z,10.70
2023-03-17T10:15:20.994Z,10.90
2023-03-17T10:17:52.058Z,18.40
2023-03-17T10:20:31.153Z,13.30
2023-03-17T10:23:07.588Z,13.90
2023-03-17T10:25:36.769Z,12.80
2023-03-17T10:28:30.143Z,12.40
2023-03-17T10:31:23.086Z,15.00
2023-03-17T10:34:11.933Z,13.50
2023-03-17T10:36:44.697Z,17.90
2023-03-17T10:39:16.305Z,14.40
2023-03-17T10:41:58.570Z,15.00
2023-03-17T10:44:56.682Z,17.60
2023-03-17T10:47:41.538Z,16.60
2023-03-17T10:50:29.243Z,15.70
2023-03-17T10:53:07.840Z,45.90
2023-03-17T10:55:42.874Z,22.40
2023-03-17T10:58:15.501Z,16.90
2023-03-17T11:01:13.433Z,17.10
2023-03-17T11:03:42.178Z,17.60
2023-03-17T11:06:13.030Z,17.60
2023-03-17T11:08:49.179Z,16.20
2023-03-17T11:11:34.979Z,15.50
2023-03-17T11:14:12.061Z,20.50
2023-03-17T11:16:54.214Z,16.00
2023-03-17T11:19:47.858Z,18.30
2023-03-17T11:22:21.361Z,19.20
2023-03-17T11:25:19.881Z,18.20
2023-03-17T11:28:00.066Z,19.60
2023-03-17T11:30:34.878Z,17.70
2023-03-17T11:33:38.730Z,25.30
2023-03-17T11:36:19.486Z,21.30
2023-03-17T11:39:23.522Z,21.70
2023-03-17T11:42:06.281Z,20.10
2023-03-17T11:45:09.087Z,20.60
2023-03-17T11:47:45.268Z,19.20
2023-03-17T11:50:22.859Z,26.60
2023-03-17T11:52:59.266Z,17.60
2023-03-17T11:55:45.014Z,16.70
2023-03-17T11:58:25.235Z,14.40
2023-03-17T12:00:58.740Z,13.90
2023-03-17T12:03:33.672Z,16.40
2023-03-17T12:06:05.814Z,23.80
2023-03-17T12:08:42.675Z,19.60
2023-03-17T12:11:22.274Z,16.40
2023-03-17T12:13:58.767Z,18.60
2023-03-17T12:16:35.945Z,11.70
2023-03-17T12:19:11.823Z,12.80
2023-03-17T12:22:23.012Z,12.50
2023-03-17T12:25:05.070Z,11.00
2023-03-17T12:27:37.546Z,15.70
2023-03-17T12:30:15.707Z,16.30
2023-03-17T12:32:53.743Z,12.60
2023-03-17T12:35:28.231Z,12.50
2023-03-17T12:38:14.673Z,11.80
2023-03-17T12:41:15.996Z,9.30
2023-03-17T12:43:59.129Z,11.30
2023-03-17T12:47:07.105Z,12.60
2023-03-17T12:49:54.477Z,12.00
2023-03-17T12:52:32.429Z,7.60
2023-03-17T12:55:02.248Z,11.00
2023-03-17T12:57:47.268Z,8.60
2023-03-17T13:00:17.342Z,9.60
2023-03-17T13:02:49.741Z,17.90
2023-03-17T13:07:55.137Z,9.10
2023-03-17T13:10:42.174Z,11.60
2023-03-17T13:13:21.743Z,12.20
2023-03-17T13:15:55.593Z,10.40
2023-03-17T13:18:34.684Z,35.80
2023-03-17T13:21:07.349Z,17.70
2023-03-17T13:23:48.792Z,12.40
2023-03-17T13:26:22.173Z,8.80
2023-03-17T13:28:52.830Z,11.00
2023-03-17T13:31:27.523Z,12.40
2023-03-17T13:34:18.144Z,8.80
2023-03-17T13:36:59.259Z,11.90
2023-03-17T13:39:43.037Z,13.30
2023-03-17T13:42:30.770Z,14.10
2023-03-17T13:45:07.395Z,11.60
2023-03-17T13:47:38.528Z,15.40
2023-03-17T13:50:21.790Z,26.80
2023-03-17T13:52:55.751Z,25.20
2023-03-17T13:55:25.169Z,91.80
2023-03-17T13:58:11.951Z,50.90
2023-03-17T14:00:47.656Z,24.50
2023-03-17T14:03:22.589Z,18.10
2023-03-17T14:05:52.985Z,16.90
2023-03-17T14:08:28.870Z,31.80
2023-03-17T14:11:01.859Z,16.70
2023-03-17T14:13:36.931Z,20.90
2023-03-17T14:16:21.725Z,23.50
2023-03-17T14:18:59.099Z,23.60
2023-03-17T14:21:32.684Z,26.10
2023-03-17T14:24:04.576Z,23.10
2023-03-17T14:26:33.354Z,28.10
2023-03-17T14:29:03.526Z,31.50
2023-03-17T14:31:33.657Z,41.00
2023-03-17T14:34:02.543Z,20.60
2023-03-17T14:36:33.040Z,24.10
2023-03-17T14:39:01.984Z,31.10
2023-03-17T14:41:32.829Z,34.00
2023-03-17T14:44:08.689Z,38.60
2023-03-17T14:46:38.890Z,21.50
2023-03-17T14:49:18.792Z,12.60
2023-03-17T14:51:53.645Z,20.90
2023-03-17T14:54:25.660Z,14.80
2023-03-17T14:57:05.418Z,23.60
2023-03-17T14:59:39.109Z,23.10
2023-03-17T15:02:25.257Z,22.20
2023-03-17T15:05:00.062Z,30.20
2023-03-17T15:07:29.940Z,26.10
2023-03-17T15:10:02.436Z,37.00
2023-03-17T15:12:31.970Z,64.20
2023-03-17T15:15:03.293Z,75.90
2023-03-17T15:17:36.853Z,56.30
2023-03-17T15:20:07.710Z,58.70
2023-03-17T15:22:42.331Z,42.60
2023-03-17T15:25:35.501Z,34.40
2023-03-17T15:28:12.213Z,25.50
2023-03-17T15:30:50.028Z,23.70
2023-03-17T15:33:23.698Z,23.30
2023-03-17T15:36:00.264Z,16.90
2023-03-17T15:38:30.298Z,21.80
2023-03-17T15:40:59.105Z,26.50
2023-03-17T15:43:27.824Z,33.90
2023-03-17T15:46:04.647Z,53.10
2023-03-17T15:48:36.389Z,46.30
2023-03-17T15:51:05.599Z,37.30
2023-03-17T15:53:35.055Z,33.20
2023-03-17T15:56:04.910Z,18.60
2023-03-17T15:58:35.140Z,18.40
2023-03-17T16:01:04.751Z,19.90
2023-03-17T16:03:34.741Z,41.50
2023-03-17T16:06:04.709Z,58.80
2023-03-17T16:08:34.029Z,68.30
2023-03-17T16:11:02.611Z,97.20
2023-03-17T16:13:32.067Z,121.90
2023-03-17T16:16:05.772Z,98.10
2023-03-17T16:18:37.121Z,91.50
2023-03-17T16:21:09.384Z,68.60
2023-03-17T16:23:41.195Z,79.80
2023-03-17T16:26:15.943Z,54.90
2023-03-17T16:28:46.318Z,65.90
2023-03-17T16:31:26.804Z,68.70
2023-03-17T16:33:55.768Z,31.50
2023-03-17T16:36:26.145Z,24.70
2023-03-17T16:38:55.166Z,25.40
2023-03-17T16:41:25.352Z,33.10
2023-03-17T16:44:00.163Z,29.40
2023-03-17T16:46:34.875Z,34.40
2023-03-17T16:49:07.373Z,32.40
2023-03-17T16:51:36.045Z,30.00
2023-03-17T16:54:07.057Z,38.70
2023-03-17T16:56:36.622Z,30.40
2023-03-17T16:59:19.906Z,24.00
2023-03-17T17:01:48.894Z,35.30
2023-03-17T17:04:17.468Z,42.50
2023-03-17T17:06:47.601Z,36.30
2023-03-17T17:09:16.423Z,41.90
2023-03-17T17:11:45.807Z,39.30
2023-03-17T17:14:15.052Z,36.30
2023-03-17T17:16:44.232Z,46.00
2023-03-17T17:19:16.782Z,36.70
2023-03-17T17:21:45.533Z,40.50
2023-03-17T17:24:15.648Z,46.90
2023-03-17T17:26:44.295Z,47.90
2023-03-17T17:29:13.155Z,44.20
2023-03-17T17:31:42.024Z,44.70
2023-03-17T17:34:10.658Z,58.50
2023-03-17T17:36:39.647Z,62.50
2023-03-17T17:41:40.652Z,73.70
2023-03-17T17:44:11.677Z,72.10
2023-03-17T17:46:42.380Z,59.80
2023-03-17T17:49:12.461Z,47.00
2023-03-17T17:51:41.444Z,45.60
2023-03-17T17:54:10.899Z,40.60
2023-03-17T17:56:46.937Z,73.20
2023-03-17T17:59:15.908Z,53.60
2023-03-17T18:01:45.214Z,57.60
2023-03-17T18:04:20.124Z,52.10
2023-03-17T18:06:49.241Z,42.50
2023-03-17T18:09:21.875Z,49.10
2023-03-17T18:11:51.642Z,46.60
2023-03-17T18:14:45.264Z,39.00
2023-03-17T18:18:28.206Z,40.70
2023-03-17T18:25:45.398Z,50.20
2023-03-17T18:32:14.008Z,69.20
2023-03-17T18:34:46.659Z,60.00
2023-03-17T18:37:16.796Z,77.90
2023-03-17T18:39:55.534Z,67.90
2023-03-17T18:42:34.448Z,57.00
2023-03-17T18:45:07.178Z,52.70
2023-03-17T18:47:39.227Z,52.40
2023-03-17T18:50:11.772Z,55.70
2023-03-17T18:52:42.765Z,63.50
2023-03-17T18:55:13.057Z,61.50
2023-03-17T18:57:44.724Z,63.60
2023-03-17T19:00:16.421Z,71.10
2023-03-17T19:02:45.827Z,83.00
2023-03-17T19:05:15.510Z,80.90
2023-03-17T19:07:45.489Z,74.40
2023-03-17T19:10:14.426Z,69.70
2023-03-17T19:12:45.620Z,64.70
2023-03-17T19:15:14.831Z,65.00
2023-03-17T19:17:47.240Z,64.00
2023-03-17T19:20:16.218Z,58.40
2023-03-17T19:22:46.444Z,45.40
2023-03-17T19:25:16.743Z,44.00
2023-03-17T19:27:45.580Z,40.20
2023-03-17T19:30:14.920Z,40.50
2023-03-17T19:32:44.565Z,47.50
2023-03-17T19:35:13.275Z,43.40
2023-03-17T19:37:42.058Z,44.70
2023-03-17T19:40:13.659Z,40.90
2023-03-17T19:42:43.458Z,40.20
2023-03-17T19:45:12.172Z,42.60
2023-03-17T19:47:41.408Z,39.40
2023-03-17T19:50:10.533Z,37.20
2023-03-17T19:52:39.625Z,44.30
2023-03-17T19:55:11.659Z,45.40
2023-03-17T19:57:40.705Z,45.60
2023-03-17T20:00:09.928Z,48.50
2023-03-17T20:02:40.202Z,44.20
2023-03-17T20:05:09.393Z,45.40
2023-03-17T20:07:41.359Z,45.70
2023-03-17T20:10:11.200Z,57.10
2023-03-17T20:12:40.659Z,61.20
2023-03-17T20:15:12.807Z,52.70
2023-03-17T20:17:41.866Z,57.30
2023-03-17T20:20:12.391Z,55.30
2023-03-17T20:22:44.024Z,53.60
2023-03-17T20:25:13.143Z,44.20
2023-03-17T20:27:44.202Z,47.60
2023-03-17T20:30:13.188Z,43.90
2023-03-17T20:32:41.899Z,46.00
2023-03-17T20:35:11.012Z,45.80
2023-03-17T20:37:40.081Z,48.40
2023-03-17T20:40:11.651Z,46.40
2023-03-17T20:42:40.673Z,51.70
2023-03-17T20:45:10.468Z,47.80
2023-03-17T20:47:41.215Z,48.60
2023-03-17T20:50:10.549Z,45.20
2023-03-17T20:52:40.054Z,42.70
2023-03-17T20:55:14.024Z,44.60
2023-03-17T20:57:45.723Z,39.20
2023-03-17T21:00:18.382Z,48.10
2023-03-17T21:02:50.272Z,44.70
2023-03-17T21:05:28.514Z,53.30
2023-03-17T21:07:57.866Z,51.70
2023-03-17T21:10:26.618Z,51.00
2023-03-17T21:12:57.491Z,54.40
2023-03-17T21:15:26.337Z,67.60
2023-03-17T21:17:55.129Z,53.90
2023-03-17T21:20:25.397Z,57.30
2023-03-17T21:22:54.209Z,59.90
2023-03-17T21:25:24.825Z,46.50
2023-03-17T21:27:54.192Z,54.20
2023-03-17T21:30:22.710Z,98.60
2023-03-17T21:32:51.751Z,91.80
2023-03-17T21:35:22.142Z,76.90
2023-03-17T21:40:23.352Z,51.40
2023-03-17T21:42:52.902Z,48.50
2023-03-17T21:45:22.289Z,45.00
2023-03-17T21:47:51.160Z,47.50
2023-03-17T21:50:20.375Z,52.80
2023-03-17T21:52:49.547Z,46.10
2023-03-17T21:55:18.611Z,49.90
2023-03-17T21:57:47.322Z,55.30
2023-03-17T22:00:17.282Z,54.90
2023-03-17T22:02:46.800Z,61.60
2023-03-17T22:05:16.733Z,61.60
2023-03-17T22:07:46.173Z,53.30
2023-03-17T22:10:14.965Z,64.50
2023-03-17T22:12:44.348Z,54.40
2023-03-17T22:15:13.906Z,50.80
2023-03-17T22:17:44.084Z,48.20
2023-03-17T22:20:13.205Z,61.10
2023-03-17T22:22:46.877Z,64.30
2023-03-17T22:25:15.913Z,78.10
2023-03-17T22:27:44.816Z,75.40
2023-03-17T22:30:15.354Z,49.40
2023-03-17T22:32:43.992Z,49.80
2023-03-17T22:35:22.789Z,46.20
2023-03-17T22:37:51.825Z,47.00
2023-03-17T22:40:20.633Z,37.70
2023-03-17T22:42:52.054Z,39.80
2023-03-17T22:45:21.406Z,40.20
2023-03-17T22:47:50.394Z,33.50
2023-03-17T22:50:19.150Z,34.60
2023-03-17T22:52:48.142Z,39.70
2023-03-17T22:55:16.894Z,31.40
2023-03-17T22:57:46.561Z,35.60
2023-03-17T23:00:17.238Z,40.00
2023-03-17T23:02:46.850Z,46.10
2023-03-17T23:05:16.290Z,48.50
2023-03-17T23:07:53.046Z,42.60
2023-03-17T23:10:23.358Z,34.30
2023-03-17T23:12:56.897Z,49.30
2023-03-17T23:15:29.115Z,36.40
2023-03-17T23:17:58.386Z,38.70
2023-03-17T23:20:32.024Z,28.60
2023-03-17T23:23:01.073Z,42.30
2023-03-17T23:25:36.921Z,33.10
2023-03-17T23:28:07.059Z,34.90
2023-03-17T23:30:41.347Z,35.80
2023-03-17T23:33:10.591Z,31.30
2023-03-17T23:35:39.908Z,33.30
2023-03-17T23:38:19.597Z,35.00
2023-03-17T23:40:48.916Z,34.30
2023-03-17T23:43:17.561Z,37.80
2023-03-17T23:45:46.855Z,35.90
2023-03-17T23:48:16.709Z,29.60
2023-03-17T23:50:56.112Z,45.70
2023-03-17T23:53:25.407Z,44.50
2023-03-17T23:55:55.028Z,63.10
2023-03-17T23:58:25.552Z,55.00
